ダーウィン の空港の天気 - METARとTAF

ダーウィン国際空港 ( YPDN / DRW ) - オーストラリア ノーザンテリトリーダーウィン
飛行場実況気象(Metar)
観測時間06/25 22:30 ACST (06/25 13:00 UTC)
風向・風速南西 2m/s
視程10km以上
天気現象
なし
気温23℃
湿度83%
気圧1015hPa
METARYPDN 251300Z 23003KT CAVOK 23/20 Q1015
過去の天気等 Google飛行場航空写真 Wunderground天気予報

過去48時間のMETAR

飛行場予報(TAF)
発表時間: 6/25 20:32 ACST (6/25 11:02 UTC)
予報対象時間: 25日21時 ACST ~ 27日3時 ACST
風向・風速南南東 3m/s
視程10km以上
なし
26日9時 ACST から
風向・風速東 6m/s
視程10km以上
少しの雲 雲底高度 1370m
26日16時 ACST から
風向・風速北北西 4m/s
視程10km以上
なし
26日21時 ACST から
風向・風速東南東 3m/s
視程10km以上
なし
TAF YPDN 251102Z 2512/2618 15005KT CAVOK
FM260000 10012KT 9999 FEW045
FM260700 33008KT CAVOK
FM261200 11005KT CAVOK